sensor_id;sensor_type;location;lat;lon;timestamp;P1;durP1;ratioP1;P2;durP2;ratioP2
60243;SDS011;46106;51.468;5.814;2023-02-04T00:00:58;22.38;;;2.95;;
60243;SDS011;46106;51.468;5.814;2023-02-04T00:03:24;19.60;;;2.63;;
60243;SDS011;46106;51.468;5.814;2023-02-04T00:05:51;22.40;;;3.50;;
60243;SDS011;46106;51.468;5.814;2023-02-04T00:08:18;31.65;;;3.25;;
60243;SDS011;46106;51.468;5.814;2023-02-04T00:10:43;21.67;;;3.30;;
60243;SDS011;46106;51.468;5.814;2023-02-04T00:13:09;28.30;;;3.38;;
60243;SDS011;46106;51.468;5.814;2023-02-04T00:15:34;30.83;;;3.15;;
60243;SDS011;46106;51.468;5.814;2023-02-04T00:18:00;20.27;;;2.35;;
60243;SDS011;46106;51.468;5.814;2023-02-04T00:20:26;24.85;;;3.35;;
60243;SDS011;46106;51.468;5.814;2023-02-04T00:22:52;24.88;;;3.03;;
60243;SDS011;46106;51.468;5.814;2023-02-04T00:25:18;23.05;;;2.78;;
60243;SDS011;46106;51.468;5.814;2023-02-04T00:27:44;18.50;;;2.45;;
60243;SDS011;46106;51.468;5.814;2023-02-04T00:30:09;22.08;;;2.75;;
60243;SDS011;46106;51.468;5.814;2023-02-04T00:32:36;25.85;;;3.28;;
60243;SDS011;46106;51.468;5.814;2023-02-04T00:35:01;20.75;;;2.45;;
60243;SDS011;46106;51.468;5.814;2023-02-04T00:37:29;15.35;;;2.33;;
60243;SDS011;46106;51.468;5.814;2023-02-04T00:39:54;22.27;;;2.88;;
60243;SDS011;46106;51.468;5.814;2023-02-04T00:42:20;15.20;;;2.10;;
60243;SDS011;46106;51.468;5.814;2023-02-04T00:44:45;20.25;;;2.65;;
60243;SDS011;46106;51.468;5.814;2023-02-04T00:47:11;26.25;;;2.85;;
60243;SDS011;46106;51.468;5.814;2023-02-04T00:49:37;24.20;;;2.83;;
60243;SDS011;46106;51.468;5.814;2023-02-04T00:52:03;24.77;;;2.60;;
60243;SDS011;46106;51.468;5.814;2023-02-04T00:54:29;21.50;;;2.45;;
60243;SDS011;46106;51.468;5.814;2023-02-04T00:56:55;19.95;;;2.17;;
60243;SDS011;46106;51.468;5.814;2023-02-04T00:59:20;25.00;;;2.60;;
60243;SDS011;46106;51.468;5.814;2023-02-04T01:01:47;31.33;;;3.17;;
60243;SDS011;46106;51.468;5.814;2023-02-04T01:04:12;14.30;;;2.53;;
60243;SDS011;46106;51.468;5.814;2023-02-04T01:06:39;26.50;;;2.65;;
60243;SDS011;46106;51.468;5.814;2023-02-04T01:09:05;23.58;;;2.50;;
60243;SDS011;46106;51.468;5.814;2023-02-04T01:11:31;23.13;;;3.28;;
60243;SDS011;46106;51.468;5.814;2023-02-04T01:13:56;21.05;;;3.17;;
60243;SDS011;46106;51.468;5.814;2023-02-04T01:16:21;19.20;;;2.78;;
60243;SDS011;46106;51.468;5.814;2023-02-04T01:18:47;23.15;;;2.28;;
60243;SDS011;46106;51.468;5.814;2023-02-04T01:21:12;18.95;;;2.25;;
60243;SDS011;46106;51.468;5.814;2023-02-04T01:23:38;25.35;;;3.22;;
60243;SDS011;46106;51.468;5.814;2023-02-04T01:26:03;22.08;;;2.90;;
60243;SDS011;46106;51.468;5.814;2023-02-04T01:28:32;30.38;;;3.17;;
60243;SDS011;46106;51.468;5.814;2023-02-04T01:30:57;22.85;;;2.90;;
60243;SDS011;46106;51.468;5.814;2023-02-04T01:33:23;31.65;;;3.22;;
60243;SDS011;46106;51.468;5.814;2023-02-04T01:35:48;18.23;;;2.42;;
60243;SDS011;46106;51.468;5.814;2023-02-04T01:38:13;24.38;;;3.03;;
60243;SDS011;46106;51.468;5.814;2023-02-04T01:40:39;27.50;;;2.83;;
60243;SDS011;46106;51.468;5.814;2023-02-04T01:43:08;20.58;;;2.70;;
60243;SDS011;46106;51.468;5.814;2023-02-04T01:45:35;26.17;;;2.92;;
60243;SDS011;46106;51.468;5.814;2023-02-04T01:48:04;23.45;;;2.88;;
60243;SDS011;46106;51.468;5.814;2023-02-04T01:50:33;23.15;;;2.40;;
60243;SDS011;46106;51.468;5.814;2023-02-04T01:52:59;28.02;;;3.30;;
60243;SDS011;46106;51.468;5.814;2023-02-04T01:55:26;20.70;;;2.45;;
60243;SDS011;46106;51.468;5.814;2023-02-04T01:57:54;29.90;;;3.15;;
60243;SDS011;46106;51.468;5.814;2023-02-04T02:00:27;25.08;;;2.65;;
60243;SDS011;46106;51.468;5.814;2023-02-04T02:02:55;21.20;;;2.95;;
60243;SDS011;46106;51.468;5.814;2023-02-04T02:05:29;28.25;;;3.33;;
60243;SDS011;46106;51.468;5.814;2023-02-04T02:07:59;31.58;;;3.20;;
60243;SDS011;46106;51.468;5.814;2023-02-04T02:10:27;23.27;;;2.58;;
60243;SDS011;46106;51.468;5.814;2023-02-04T02:12:53;25.55;;;3.53;;
60243;SDS011;46106;51.468;5.814;2023-02-04T02:15:20;22.60;;;2.88;;
60243;SDS011;46106;51.468;5.814;2023-02-04T02:17:46;26.15;;;2.90;;
60243;SDS011;46106;51.468;5.814;2023-02-04T02:20:13;30.75;;;2.80;;
60243;SDS011;46106;51.468;5.814;2023-02-04T02:25:39;22.70;;;2.58;;
60243;SDS011;46106;51.468;5.814;2023-02-04T02:28:15;17.73;;;2.90;;
60243;SDS011;46106;51.468;5.814;2023-02-04T02:30:42;19.58;;;2.95;;
60243;SDS011;46106;51.468;5.814;2023-02-04T02:33:10;29.17;;;3.03;;
60243;SDS011;46106;51.468;5.814;2023-02-04T02:35:39;28.42;;;2.85;;
60243;SDS011;46106;51.468;5.814;2023-02-04T02:38:08;28.73;;;2.95;;
60243;SDS011;46106;51.468;5.814;2023-02-04T02:40:35;21.80;;;2.67;;
60243;SDS011;46106;51.468;5.814;2023-02-04T02:43:01;20.45;;;2.30;;
60243;SDS011;46106;51.468;5.814;2023-02-04T02:45:29;21.50;;;3.60;;
60243;SDS011;46106;51.468;5.814;2023-02-04T02:47:56;27.13;;;3.15;;
60243;SDS011;46106;51.468;5.814;2023-02-04T02:50:24;17.20;;;3.30;;
60243;SDS011;46106;51.468;5.814;2023-02-04T02:52:53;22.83;;;3.22;;
60243;SDS011;46106;51.468;5.814;2023-02-04T02:55:20;35.80;;;4.38;;
60243;SDS011;46106;51.468;5.814;2023-02-04T02:57:49;26.15;;;3.13;;
60243;SDS011;46106;51.468;5.814;2023-02-04T03:00:19;32.10;;;4.05;;
60243;SDS011;46106;51.468;5.814;2023-02-04T03:05:40;21.75;;;2.88;;
60243;SDS011;46106;51.468;5.814;2023-02-04T03:08:09;27.08;;;3.33;;
60243;SDS011;46106;51.468;5.814;2023-02-04T03:10:38;24.05;;;3.60;;
60243;SDS011;46106;51.468;5.814;2023-02-04T03:13:03;29.10;;;3.50;;
60243;SDS011;46106;51.468;5.814;2023-02-04T03:15:29;26.58;;;3.30;;
60243;SDS011;46106;51.468;5.814;2023-02-04T03:17:56;28.73;;;3.42;;
60243;SDS011;46106;51.468;5.814;2023-02-04T03:20:23;20.20;;;2.92;;
60243;SDS011;46106;51.468;5.814;2023-02-04T03:22:52;25.55;;;3.00;;
60243;SDS011;46106;51.468;5.814;2023-02-04T03:25:19;23.60;;;2.78;;
60243;SDS011;46106;51.468;5.814;2023-02-04T03:27:44;17.25;;;2.65;;
60243;SDS011;46106;51.468;5.814;2023-02-04T03:30:10;36.15;;;4.43;;
60243;SDS011;46106;51.468;5.814;2023-02-04T03:32:36;37.17;;;3.75;;
60243;SDS011;46106;51.468;5.814;2023-02-04T03:35:02;23.13;;;3.25;;
60243;SDS011;46106;51.468;5.814;2023-02-04T03:37:28;25.38;;;3.40;;
60243;SDS011;46106;51.468;5.814;2023-02-04T03:39:53;26.60;;;3.70;;
60243;SDS011;46106;51.468;5.814;2023-02-04T03:42:19;34.08;;;3.53;;
60243;SDS011;46106;51.468;5.814;2023-02-04T03:44:44;29.40;;;3.78;;
60243;SDS011;46106;51.468;5.814;2023-02-04T03:47:09;27.27;;;3.40;;
60243;SDS011;46106;51.468;5.814;2023-02-04T03:49:35;31.95;;;3.95;;
60243;SDS011;46106;51.468;5.814;2023-02-04T03:52:01;31.13;;;3.83;;
60243;SDS011;46106;51.468;5.814;2023-02-04T03:54:27;33.35;;;4.82;;
60243;SDS011;46106;51.468;5.814;2023-02-04T03:56:53;31.10;;;4.05;;
60243;SDS011;46106;51.468;5.814;2023-02-04T03:59:19;35.72;;;4.53;;
60243;SDS011;46106;51.468;5.814;2023-02-04T04:01:45;38.60;;;4.47;;
60243;SDS011;46106;51.468;5.814;2023-02-04T04:04:10;30.70;;;4.40;;
60243;SDS011;46106;51.468;5.814;2023-02-04T04:06:36;34.45;;;3.28;;
60243;SDS011;46106;51.468;5.814;2023-02-04T04:09:02;38.05;;;4.55;;
60243;SDS011;46106;51.468;5.814;2023-02-04T04:11:32;41.05;;;5.55;;
60243;SDS011;46106;51.468;5.814;2023-02-04T04:13:57;33.55;;;5.18;;
60243;SDS011;46106;51.468;5.814;2023-02-04T04:16:23;38.25;;;4.63;;
60243;SDS011;46106;51.468;5.814;2023-02-04T04:18:48;39.15;;;6.10;;
60243;SDS011;46106;51.468;5.814;2023-02-04T04:21:14;35.28;;;4.60;;
60243;SDS011;46106;51.468;5.814;2023-02-04T04:23:39;41.05;;;5.45;;
60243;SDS011;46106;51.468;5.814;2023-02-04T04:26:05;36.30;;;4.75;;
60243;SDS011;46106;51.468;5.814;2023-02-04T04:28:30;32.75;;;5.05;;
60243;SDS011;46106;51.468;5.814;2023-02-04T04:30:56;34.85;;;4.88;;
60243;SDS011;46106;51.468;5.814;2023-02-04T04:33:21;38.35;;;4.78;;
60243;SDS011;46106;51.468;5.814;2023-02-04T04:35:46;37.65;;;5.88;;
60243;SDS011;46106;51.468;5.814;2023-02-04T04:38:12;33.50;;;5.25;;
60243;SDS011;46106;51.468;5.814;2023-02-04T04:40:37;39.90;;;5.13;;
60243;SDS011;46106;51.468;5.814;2023-02-04T04:43:03;35.38;;;5.10;;
60243;SDS011;46106;51.468;5.814;2023-02-04T04:45:28;37.42;;;5.97;;
60243;SDS011;46106;51.468;5.814;2023-02-04T04:47:54;29.38;;;5.13;;
60243;SDS011;46106;51.468;5.814;2023-02-04T04:50:19;29.17;;;5.50;;
60243;SDS011;46106;51.468;5.814;2023-02-04T04:52:45;40.83;;;6.28;;
60243;SDS011;46106;51.468;5.814;2023-02-04T04:55:10;55.75;;;6.85;;
60243;SDS011;46106;51.468;5.814;2023-02-04T04:57:36;42.58;;;5.70;;
60243;SDS011;46106;51.468;5.814;2023-02-04T05:00:02;39.35;;;6.47;;
60243;SDS011;46106;51.468;5.814;2023-02-04T05:02:28;46.78;;;7.15;;
60243;SDS011;46106;51.468;5.814;2023-02-04T05:04:53;36.35;;;6.60;;
60243;SDS011;46106;51.468;5.814;2023-02-04T05:07:19;39.00;;;6.22;;
60243;SDS011;46106;51.468;5.814;2023-02-04T05:09:44;36.28;;;7.22;;
60243;SDS011;46106;51.468;5.814;2023-02-04T05:12:10;42.03;;;7.25;;
60243;SDS011;46106;51.468;5.814;2023-02-04T05:14:36;46.05;;;6.90;;
60243;SDS011;46106;51.468;5.814;2023-02-04T05:17:01;35.13;;;6.20;;
60243;SDS011;46106;51.468;5.814;2023-02-04T05:19:27;42.78;;;7.00;;
60243;SDS011;46106;51.468;5.814;2023-02-04T05:21:52;40.58;;;7.25;;
60243;SDS011;46106;51.468;5.814;2023-02-04T05:24:18;33.72;;;6.40;;
60243;SDS011;46106;51.468;5.814;2023-02-04T05:26:43;41.47;;;7.53;;
60243;SDS011;46106;51.468;5.814;2023-02-04T05:29:09;48.78;;;7.00;;
60243;SDS011;46106;51.468;5.814;2023-02-04T05:31:37;33.45;;;6.65;;
60243;SDS011;46106;51.468;5.814;2023-02-04T05:34:02;35.83;;;6.45;;
60243;SDS011;46106;51.468;5.814;2023-02-04T05:36:29;49.83;;;7.70;;
60243;SDS011;46106;51.468;5.814;2023-02-04T05:38:54;38.13;;;6.80;;
60243;SDS011;46106;51.468;5.814;2023-02-04T05:41:20;36.95;;;7.55;;
60243;SDS011;46106;51.468;5.814;2023-02-04T05:43:46;51.38;;;6.88;;
60243;SDS011;46106;51.468;5.814;2023-02-04T05:46:11;47.88;;;7.20;;
60243;SDS011;46106;51.468;5.814;2023-02-04T05:48:36;32.45;;;7.57;;
60243;SDS011;46106;51.468;5.814;2023-02-04T05:51:04;43.58;;;6.95;;
60243;SDS011;46106;51.468;5.814;2023-02-04T05:53:30;39.80;;;7.07;;
60243;SDS011;46106;51.468;5.814;2023-02-04T05:55:55;51.72;;;7.25;;
60243;SDS011;46106;51.468;5.814;2023-02-04T05:58:21;42.63;;;6.38;;
60243;SDS011;46106;51.468;5.814;2023-02-04T06:00:46;37.58;;;7.22;;
60243;SDS011;46106;51.468;5.814;2023-02-04T06:03:11;44.92;;;8.10;;
60243;SDS011;46106;51.468;5.814;2023-02-04T06:05:38;33.33;;;6.88;;
60243;SDS011;46106;51.468;5.814;2023-02-04T06:08:04;40.25;;;8.18;;
60243;SDS011;46106;51.468;5.814;2023-02-04T06:10:29;44.95;;;7.75;;
60243;SDS011;46106;51.468;5.814;2023-02-04T06:12:55;54.28;;;9.45;;
60243;SDS011;46106;51.468;5.814;2023-02-04T06:15:20;42.67;;;8.77;;
60243;SDS011;46106;51.468;5.814;2023-02-04T06:17:46;41.17;;;7.57;;
60243;SDS011;46106;51.468;5.814;2023-02-04T06:20:13;44.50;;;8.57;;
60243;SDS011;46106;51.468;5.814;2023-02-04T06:22:39;53.47;;;10.13;;
60243;SDS011;46106;51.468;5.814;2023-02-04T06:25:04;54.45;;;8.13;;
60243;SDS011;46106;51.468;5.814;2023-02-04T06:27:30;44.25;;;8.55;;
60243;SDS011;46106;51.468;5.814;2023-02-04T06:29:56;53.85;;;8.38;;
60243;SDS011;46106;51.468;5.814;2023-02-04T06:32:22;46.63;;;8.80;;
60243;SDS011;46106;51.468;5.814;2023-02-04T06:34:48;54.80;;;9.57;;
60243;SDS011;46106;51.468;5.814;2023-02-04T06:37:13;55.63;;;9.80;;
60243;SDS011;46106;51.468;5.814;2023-02-04T06:39:41;48.72;;;8.77;;
60243;SDS011;46106;51.468;5.814;2023-02-04T06:42:07;55.90;;;9.45;;
60243;SDS011;46106;51.468;5.814;2023-02-04T06:44:33;51.13;;;9.68;;
60243;SDS011;46106;51.468;5.814;2023-02-04T06:46:59;55.45;;;9.68;;
60243;SDS011;46106;51.468;5.814;2023-02-04T06:49:24;70.43;;;9.95;;
60243;SDS011;46106;51.468;5.814;2023-02-04T06:51:50;60.60;;;10.90;;
60243;SDS011;46106;51.468;5.814;2023-02-04T06:54:16;75.22;;;12.05;;
60243;SDS011;46106;51.468;5.814;2023-02-04T06:56:41;63.60;;;11.63;;
60243;SDS011;46106;51.468;5.814;2023-02-04T06:59:11;51.60;;;10.63;;
60243;SDS011;46106;51.468;5.814;2023-02-04T07:01:36;66.60;;;11.70;;
60243;SDS011;46106;51.468;5.814;2023-02-04T07:04:02;82.13;;;12.00;;
60243;SDS011;46106;51.468;5.814;2023-02-04T07:06:27;61.25;;;11.10;;
60243;SDS011;46106;51.468;5.814;2023-02-04T07:08:53;60.25;;;10.88;;
60243;SDS011;46106;51.468;5.814;2023-02-04T07:11:19;54.95;;;11.38;;
60243;SDS011;46106;51.468;5.814;2023-02-04T07:13:44;76.05;;;13.55;;
60243;SDS011;46106;51.468;5.814;2023-02-04T07:16:10;78.82;;;12.13;;
60243;SDS011;46106;51.468;5.814;2023-02-04T07:18:35;79.05;;;11.75;;
60243;SDS011;46106;51.468;5.814;2023-02-04T07:21:01;79.90;;;13.43;;
60243;SDS011;46106;51.468;5.814;2023-02-04T07:23:26;70.10;;;14.50;;
60243;SDS011;46106;51.468;5.814;2023-02-04T07:25:52;58.70;;;12.27;;
60243;SDS011;46106;51.468;5.814;2023-02-04T07:28:20;83.18;;;13.07;;
60243;SDS011;46106;51.468;5.814;2023-02-04T07:30:46;62.00;;;12.50;;
60243;SDS011;46106;51.468;5.814;2023-02-04T07:33:12;76.15;;;13.85;;
60243;SDS011;46106;51.468;5.814;2023-02-04T07:35:38;61.80;;;13.45;;
60243;SDS011;46106;51.468;5.814;2023-02-04T07:38:03;61.15;;;12.38;;
60243;SDS011;46106;51.468;5.814;2023-02-04T07:40:29;67.63;;;14.90;;
60243;SDS011;46106;51.468;5.814;2023-02-04T07:42:55;59.33;;;12.85;;
60243;SDS011;46106;51.468;5.814;2023-02-04T07:45:21;47.35;;;12.48;;
60243;SDS011;46106;51.468;5.814;2023-02-04T07:47:47;49.08;;;13.02;;
60243;SDS011;46106;51.468;5.814;2023-02-04T07:50:13;48.15;;;12.60;;
60243;SDS011;46106;51.468;5.814;2023-02-04T07:52:39;54.72;;;12.65;;
60243;SDS011;46106;51.468;5.814;2023-02-04T07:55:04;48.25;;;11.75;;
60243;SDS011;46106;51.468;5.814;2023-02-04T07:57:31;50.22;;;12.88;;
60243;SDS011;46106;51.468;5.814;2023-02-04T07:59:58;56.33;;;12.77;;
60243;SDS011;46106;51.468;5.814;2023-02-04T08:02:23;59.88;;;14.25;;
60243;SDS011;46106;51.468;5.814;2023-02-04T08:04:49;44.22;;;12.85;;
60243;SDS011;46106;51.468;5.814;2023-02-04T08:07:15;44.70;;;12.35;;
60243;SDS011;46106;51.468;5.814;2023-02-04T08:09:43;54.47;;;12.90;;
60243;SDS011;46106;51.468;5.814;2023-02-04T08:12:09;44.65;;;12.70;;
60243;SDS011;46106;51.468;5.814;2023-02-04T08:14:34;47.10;;;12.57;;
60243;SDS011;46106;51.468;5.814;2023-02-04T08:17:01;55.85;;;12.75;;
60243;SDS011;46106;51.468;5.814;2023-02-04T08:19:26;41.85;;;11.40;;
60243;SDS011;46106;51.468;5.814;2023-02-04T08:21:52;41.58;;;12.05;;
60243;SDS011;46106;51.468;5.814;2023-02-04T08:24:17;43.95;;;12.35;;
60243;SDS011;46106;51.468;5.814;2023-02-04T08:26:43;41.50;;;12.93;;
60243;SDS011;46106;51.468;5.814;2023-02-04T08:29:09;34.65;;;12.05;;
60243;SDS011;46106;51.468;5.814;2023-02-04T08:31:35;43.65;;;12.88;;
60243;SDS011;46106;51.468;5.814;2023-02-04T08:34:01;47.67;;;14.20;;
60243;SDS011;46106;51.468;5.814;2023-02-04T08:36:28;41.33;;;13.35;;
60243;SDS011;46106;51.468;5.814;2023-02-04T08:38:53;44.63;;;12.88;;
60243;SDS011;46106;51.468;5.814;2023-02-04T08:41:19;50.45;;;13.38;;
60243;SDS011;46106;51.468;5.814;2023-02-04T08:43:44;42.80;;;12.98;;
60243;SDS011;46106;51.468;5.814;2023-02-04T08:46:10;42.13;;;12.75;;
60243;SDS011;46106;51.468;5.814;2023-02-04T08:48:35;39.92;;;12.20;;
60243;SDS011;46106;51.468;5.814;2023-02-04T08:51:01;47.22;;;13.55;;
60243;SDS011;46106;51.468;5.814;2023-02-04T08:53:27;44.05;;;14.05;;
60243;SDS011;46106;51.468;5.814;2023-02-04T08:55:52;41.20;;;13.27;;
60243;SDS011;46106;51.468;5.814;2023-02-04T08:58:17;46.65;;;12.88;;
60243;SDS011;46106;51.468;5.814;2023-02-04T09:00:43;41.47;;;12.07;;
60243;SDS011;46106;51.468;5.814;2023-02-04T09:03:08;35.35;;;12.00;;
60243;SDS011;46106;51.468;5.814;2023-02-04T09:05:34;41.90;;;14.10;;
60243;SDS011;46106;51.468;5.814;2023-02-04T09:07:59;39.15;;;12.05;;
60243;SDS011;46106;51.468;5.814;2023-02-04T09:10:25;39.67;;;13.15;;
60243;SDS011;46106;51.468;5.814;2023-02-04T09:12:50;45.58;;;13.00;;
60243;SDS011;46106;51.468;5.814;2023-02-04T09:15:20;38.97;;;12.15;;
60243;SDS011;46106;51.468;5.814;2023-02-04T09:17:46;39.20;;;13.48;;
60243;SDS011;46106;51.468;5.814;2023-02-04T09:20:11;42.05;;;13.25;;
60243;SDS011;46106;51.468;5.814;2023-02-04T09:22:37;47.15;;;13.52;;
60243;SDS011;46106;51.468;5.814;2023-02-04T09:25:03;44.33;;;13.90;;
60243;SDS011;46106;51.468;5.814;2023-02-04T09:27:29;43.10;;;12.50;;
60243;SDS011;46106;51.468;5.814;2023-02-04T09:29:55;48.40;;;13.23;;
60243;SDS011;46106;51.468;5.814;2023-02-04T09:32:21;47.83;;;12.82;;
60243;SDS011;46106;51.468;5.814;2023-02-04T09:34:47;44.83;;;13.73;;
60243;SDS011;46106;51.468;5.814;2023-02-04T09:37:13;46.20;;;14.35;;
60243;SDS011;46106;51.468;5.814;2023-02-04T09:39:38;47.22;;;15.07;;
60243;SDS011;46106;51.468;5.814;2023-02-04T09:42:04;53.25;;;14.05;;
60243;SDS011;46106;51.468;5.814;2023-02-04T09:44:32;46.65;;;14.02;;
60243;SDS011;46106;51.468;5.814;2023-02-04T09:46:58;40.60;;;13.25;;
60243;SDS011;46106;51.468;5.814;2023-02-04T09:49:25;48.63;;;14.23;;
60243;SDS011;46106;51.468;5.814;2023-02-04T09:51:51;47.10;;;13.98;;
60243;SDS011;46106;51.468;5.814;2023-02-04T09:54:19;50.72;;;15.27;;
60243;SDS011;46106;51.468;5.814;2023-02-04T09:56:46;45.00;;;14.32;;
60243;SDS011;46106;51.468;5.814;2023-02-04T09:59:17;47.38;;;14.85;;
60243;SDS011;46106;51.468;5.814;2023-02-04T10:01:46;57.85;;;14.98;;
60243;SDS011;46106;51.468;5.814;2023-02-04T10:04:25;48.83;;;15.15;;
60243;SDS011;46106;51.468;5.814;2023-02-04T10:06:53;52.28;;;15.98;;
60243;SDS011;46106;51.468;5.814;2023-02-04T10:09:22;44.80;;;12.95;;
60243;SDS011;46106;51.468;5.814;2023-02-04T10:11:48;52.90;;;14.82;;
60243;SDS011;46106;51.468;5.814;2023-02-04T10:14:14;57.13;;;14.77;;
60243;SDS011;46106;51.468;5.814;2023-02-04T10:16:45;56.25;;;14.52;;
60243;SDS011;46106;51.468;5.814;2023-02-04T10:19:19;47.15;;;13.48;;
60243;SDS011;46106;51.468;5.814;2023-02-04T10:21:45;41.30;;;12.45;;
60243;SDS011;46106;51.468;5.814;2023-02-04T10:24:13;57.53;;;12.68;;
60243;SDS011;46106;51.468;5.814;2023-02-04T10:26:41;50.70;;;13.43;;
60243;SDS011;46106;51.468;5.814;2023-02-04T10:29:11;44.05;;;12.07;;
60243;SDS011;46106;51.468;5.814;2023-02-04T10:31:39;50.25;;;12.35;;
60243;SDS011;46106;51.468;5.814;2023-02-04T10:36:47;43.08;;;12.38;;
60243;SDS011;46106;51.468;5.814;2023-02-04T10:39:18;46.25;;;13.82;;
60243;SDS011;46106;51.468;5.814;2023-02-04T10:41:54;43.65;;;10.95;;
60243;SDS011;46106;51.468;5.814;2023-02-04T10:44:25;59.25;;;12.60;;
60243;SDS011;46106;51.468;5.814;2023-02-04T10:47:04;38.72;;;11.57;;
60243;SDS011;46106;51.468;5.814;2023-02-04T10:49:31;49.30;;;12.55;;
60243;SDS011;46106;51.468;5.814;2023-02-04T10:51:57;53.33;;;12.32;;
60243;SDS011;46106;51.468;5.814;2023-02-04T10:54:34;49.45;;;11.75;;
60243;SDS011;46106;51.468;5.814;2023-02-04T11:00:00;55.20;;;11.10;;
60243;SDS011;46106;51.468;5.814;2023-02-04T11:02:30;52.33;;;10.90;;
60243;SDS011;46106;51.468;5.814;2023-02-04T11:05:14;45.90;;;8.82;;
60243;SDS011;46106;51.468;5.814;2023-02-04T11:07:44;45.15;;;8.30;;
60243;SDS011;46106;51.468;5.814;2023-02-04T11:10:29;42.75;;;9.95;;
60243;SDS011;46106;51.468;5.814;2023-02-04T11:18:24;39.90;;;8.43;;
60243;SDS011;46106;51.468;5.814;2023-02-04T11:20:55;42.58;;;8.18;;
60243;SDS011;46106;51.468;5.814;2023-02-04T11:31:11;55.75;;;12.13;;
60243;SDS011;46106;51.468;5.814;2023-02-04T11:33:39;39.70;;;8.32;;
60243;SDS011;46106;51.468;5.814;2023-02-04T11:36:08;56.60;;;10.45;;
60243;SDS011;46106;51.468;5.814;2023-02-04T11:38:36;40.95;;;8.88;;
60243;SDS011;46106;51.468;5.814;2023-02-04T11:41:02;46.88;;;9.10;;
60243;SDS011;46106;51.468;5.814;2023-02-04T11:43:33;49.38;;;9.30;;
60243;SDS011;46106;51.468;5.814;2023-02-04T11:46:04;49.75;;;10.13;;
60243;SDS011;46106;51.468;5.814;2023-02-04T11:48:36;50.80;;;9.80;;
60243;SDS011;46106;51.468;5.814;2023-02-04T11:51:02;47.45;;;8.32;;
60243;SDS011;46106;51.468;5.814;2023-02-04T11:53:35;44.00;;;7.65;;
60243;SDS011;46106;51.468;5.814;2023-02-04T11:56:01;49.83;;;8.07;;
60243;SDS011;46106;51.468;5.814;2023-02-04T11:58:29;45.85;;;8.13;;
60243;SDS011;46106;51.468;5.814;2023-02-04T12:00:56;36.33;;;6.55;;
60243;SDS011;46106;51.468;5.814;2023-02-04T12:03:25;39.80;;;7.68;;
60243;SDS011;46106;51.468;5.814;2023-02-04T12:05:55;41.72;;;6.55;;
60243;SDS011;46106;51.468;5.814;2023-02-04T12:11:00;38.92;;;7.00;;
60243;SDS011;46106;51.468;5.814;2023-02-04T12:13:46;38.45;;;6.85;;
60243;SDS011;46106;51.468;5.814;2023-02-04T12:16:14;43.60;;;7.35;;
60243;SDS011;46106;51.468;5.814;2023-02-04T12:18:40;39.33;;;7.80;;
60243;SDS011;46106;51.468;5.814;2023-02-04T12:21:05;52.45;;;7.88;;
60243;SDS011;46106;51.468;5.814;2023-02-04T12:23:31;31.73;;;6.70;;
60243;SDS011;46106;51.468;5.814;2023-02-04T12:25:57;39.20;;;6.95;;
60243;SDS011;46106;51.468;5.814;2023-02-04T12:28:23;42.50;;;7.40;;
60243;SDS011;46106;51.468;5.814;2023-02-04T12:30:49;34.17;;;5.18;;
60243;SDS011;46106;51.468;5.814;2023-02-04T12:33:15;37.22;;;6.20;;
60243;SDS011;46106;51.468;5.814;2023-02-04T12:35:41;34.95;;;6.75;;
60243;SDS011;46106;51.468;5.814;2023-02-04T12:38:06;37.65;;;5.82;;
60243;SDS011;46106;51.468;5.814;2023-02-04T12:40:33;27.45;;;5.88;;
60243;SDS011;46106;51.468;5.814;2023-02-04T12:42:59;34.38;;;6.38;;
60243;SDS011;46106;51.468;5.814;2023-02-04T12:45:25;46.50;;;6.32;;
60243;SDS011;46106;51.468;5.814;2023-02-04T12:47:50;31.58;;;4.95;;
60243;SDS011;46106;51.468;5.814;2023-02-04T12:50:16;39.35;;;5.65;;
60243;SDS011;46106;51.468;5.814;2023-02-04T12:52:47;37.55;;;6.38;;
60243;SDS011;46106;51.468;5.814;2023-02-04T12:55:20;28.05;;;6.05;;
60243;SDS011;46106;51.468;5.814;2023-02-04T12:57:47;29.58;;;6.07;;
60243;SDS011;46106;51.468;5.814;2023-02-04T13:00:13;34.28;;;5.53;;
60243;SDS011;46106;51.468;5.814;2023-02-04T13:02:39;36.70;;;5.80;;
60243;SDS011;46106;51.468;5.814;2023-02-04T13:05:08;30.15;;;6.03;;
60243;SDS011;46106;51.468;5.814;2023-02-04T13:07:34;26.85;;;5.07;;
60243;SDS011;46106;51.468;5.814;2023-02-04T13:10:00;35.85;;;5.30;;
60243;SDS011;46106;51.468;5.814;2023-02-04T13:12:29;34.60;;;6.95;;
60243;SDS011;46106;51.468;5.814;2023-02-04T13:14:55;30.95;;;6.05;;
60243;SDS011;46106;51.468;5.814;2023-02-04T13:17:20;36.55;;;7.10;;
60243;SDS011;46106;51.468;5.814;2023-02-04T13:19:45;27.38;;;6.50;;
60243;SDS011;46106;51.468;5.814;2023-02-04T13:22:11;38.88;;;7.07;;
60243;SDS011;46106;51.468;5.814;2023-02-04T13:24:36;28.45;;;5.82;;
60243;SDS011;46106;51.468;5.814;2023-02-04T13:27:02;49.00;;;6.93;;
60243;SDS011;46106;51.468;5.814;2023-02-04T13:29:27;28.13;;;6.35;;
60243;SDS011;46106;51.468;5.814;2023-02-04T13:31:54;33.20;;;6.35;;
60243;SDS011;46106;51.468;5.814;2023-02-04T13:34:20;31.08;;;6.13;;
60243;SDS011;46106;51.468;5.814;2023-02-04T13:36:45;42.50;;;6.13;;
60243;SDS011;46106;51.468;5.814;2023-02-04T13:39:11;32.90;;;7.05;;
60243;SDS011;46106;51.468;5.814;2023-02-04T13:41:36;41.55;;;7.30;;
60243;SDS011;46106;51.468;5.814;2023-02-04T13:44:02;37.70;;;6.50;;
60243;SDS011;46106;51.468;5.814;2023-02-04T13:46:28;29.38;;;6.20;;
60243;SDS011;46106;51.468;5.814;2023-02-04T13:48:54;26.02;;;6.28;;
60243;SDS011;46106;51.468;5.814;2023-02-04T13:51:20;27.05;;;5.05;;
60243;SDS011;46106;51.468;5.814;2023-02-04T13:53:45;32.25;;;5.78;;
60243;SDS011;46106;51.468;5.814;2023-02-04T13:56:11;28.65;;;5.57;;
60243;SDS011;46106;51.468;5.814;2023-02-04T13:58:36;30.70;;;6.05;;
60243;SDS011;46106;51.468;5.814;2023-02-04T14:01:07;28.02;;;4.93;;
60243;SDS011;46106;51.468;5.814;2023-02-04T14:03:34;28.52;;;6.55;;
60243;SDS011;46106;51.468;5.814;2023-02-04T14:05:59;26.15;;;5.80;;
60243;SDS011;46106;51.468;5.814;2023-02-04T14:08:25;39.80;;;6.05;;
60243;SDS011;46106;51.468;5.814;2023-02-04T14:10:50;44.75;;;6.80;;
60243;SDS011;46106;51.468;5.814;2023-02-04T14:13:17;34.40;;;5.63;;
60243;SDS011;46106;51.468;5.814;2023-02-04T14:15:42;36.13;;;6.57;;
60243;SDS011;46106;51.468;5.814;2023-02-04T14:18:08;33.97;;;6.07;;
60243;SDS011;46106;51.468;5.814;2023-02-04T14:20:34;35.65;;;6.65;;
60243;SDS011;46106;51.468;5.814;2023-02-04T14:23:00;27.00;;;6.30;;
60243;SDS011;46106;51.468;5.814;2023-02-04T14:25:26;37.25;;;6.63;;
60243;SDS011;46106;51.468;5.814;2023-02-04T14:27:52;26.42;;;5.13;;
60243;SDS011;46106;51.468;5.814;2023-02-04T14:30:18;27.80;;;5.50;;
60243;SDS011;46106;51.468;5.814;2023-02-04T14:32:46;21.75;;;4.57;;
60243;SDS011;46106;51.468;5.814;2023-02-04T14:35:12;32.90;;;4.97;;
60243;SDS011;46106;51.468;5.814;2023-02-04T14:37:38;30.27;;;5.40;;
60243;SDS011;46106;51.468;5.814;2023-02-04T14:40:04;22.95;;;4.65;;
60243;SDS011;46106;51.468;5.814;2023-02-04T14:42:30;26.52;;;5.05;;
60243;SDS011;46106;51.468;5.814;2023-02-04T14:44:56;28.83;;;5.18;;
60243;SDS011;46106;51.468;5.814;2023-02-04T14:47:22;23.73;;;5.43;;
60243;SDS011;46106;51.468;5.814;2023-02-04T14:49:47;33.45;;;5.43;;
60243;SDS011;46106;51.468;5.814;2023-02-04T14:52:13;29.45;;;5.70;;
60243;SDS011;46106;51.468;5.814;2023-02-04T14:54:39;25.38;;;4.97;;